LGTS - Thessaloniki/Mik, Greece
Distance from station: 15km
: 10/12/2023 11:50
Few Clouds
Few Clouds

: 7 km/h
: 9°C
Wind Chill: 8°C
: 6°C
: 82%
: 1017 hPa
Clouds: Few Clouds
Visibility: 10 km
Cloud details: Few Clouds 610 m
2023/12/10 09:50 LGTS 100950Z 29004KT 9999 FEW020 09/06 Q1017 NOSIG
LGKZ - Kozani (civ/Army, Greece
Distance from station: 113km
: 10/12/2023 11:50
Partly Cloudy
Partly Cloudy

: 7 km/h
: 7°C
Wind Chill: 6°C
: -1°C
: 57%
: 1016 hPa
Clouds: Partly Cloudy
Visibility: 10 km
Cloud details: Few Clouds 762 m
Partly Cloudy 2438 m
2023/12/10 09:50 LGKZ 100950Z 18004KT 9999 FEW025 SCT080 07/M01 Q1016
 
LGKV - Kavala/Chrisoupo, Greece
Distance from station: 132km
: 10/12/2023 11:50
Partly Cloudy
Partly Cloudy

: 4 km/h
: 10°C
: 4°C
: 67%
: 1017 hPa
Clouds: Partly Cloudy
Visibility: 10 km
Cloud details: Few Clouds 366 m
Partly Cloudy 762 m
2023/12/10 09:50 LGKV 100950Z 06002KT 9999 FEW012 SCT025 10/04 Q1017
LGBL - Nea Anchialos, Greece
Distance from station: 156km
: 10/12/2023 11:50
Clear
Clear
   calm
:
: 12°C
: 4°C
: 58%
: 1017 hPa
: Clear
Visibility: greater than 10 km
2023/12/10 09:50 LGBL 100950Z 00000KT CAVOK 12/04 Q1017
 
LGSK - Skiathos Island, Greece
Distance from station: 161km
: 09/12/2023 19:50
NOT Current
Mostly Cloudy
Mostly Cloudy
   varies
: varies 4 km/h
: 10°C
: 3°C
: 62%
: 1017 hPa
Clouds: Mostly Cloudy
Visibility: 10 km
Cloud details: Few Clouds 396 m
Mostly Cloudy 762 m
2023/12/09 17:50 LGSK 091750Z VRB02KT 9999 FEW013 BKN025 10/03 Q1017
LWSK - Skopje/Petrovac, Macedonia
Distance from station: 195km
: 10/12/2023 11:30
Clear
Clear
   varies
: varies 2 km/h
: 3°C
: 0°C
: 81%
: 1017 hPa
: Clear
Visibility: greater than 10 km
2023/12/10 09:30 LWSK 100930Z VRB01KT CAVOK 03/00 Q1017 NOSIG
 
LGLM - Limnos Island Ar, Greece
Distance from station: 196km
: 10/12/2023 11:50
Few Clouds
Few Clouds
   varies
: varies 6 km/h
: 12°C
: 4°C
: 58%
: 1017 hPa
Clouds: Few Clouds
Visibility: 10 km
Cloud details: Few Clouds 762 m
2023/12/10 09:50 LGLM 100950Z VRB03KT 9999 FEW025 12/04 Q1017
LWOH - Ohrid, Macedonia
Distance from station: 202km
: 10/12/2023 12:00
Mostly Cloudy
Mostly Cloudy
   calm
:
: 5°C
: 0°C
: 70%
: 1015 hPa
Clouds: Mostly Cloudy
Visibility: 10 km
Cloud details: Few Clouds 1219 m
Mostly Cloudy 3658 m
2023/12/10 10:00 LWOH 101000Z 00000KT 9999 FEW040 BKN120 05/00 Q1015
 
LGSY - Skiros, Greece
Distance from station: 217km
: 10/12/2023 11:50
Partly Cloudy
Partly Cloudy
   calm
:
: 14°C
: 6°C
: 59%
: 1017 hPa
Clouds: Partly Cloudy
Visibility: 10 km
Cloud details: Partly Cloudy 610 m
2023/12/10 09:50 LGSY 100950Z 00000KT 9999 SCT020 14/06 Q1017 RMK BKN080 BLU
LGIO - Ioannina, Greece
Distance from station: 218km
: 10/12/2023 11:50
Few Clouds
Few Clouds
   varies
: varies 2 km/h
: 5°C
: 2°C
: 81%
: 1017 hPa
Clouds: Few Clouds
Visibility: 10 km
Cloud details: Few Clouds 914 m
2023/12/10 09:50 LGIO 100950Z VRB01KT 9999 FEW030 05/02 Q1017
 
LBPD - Plovdiv, Bulgaria
Distance from station: 222km
: 10/12/2023 11:30
Mist,
Mist,
   varies
: varies 2 km/h
: 0°C
: 0°C
: 100%
: 1018 hPa
: Mist
Clouds:
Visibility: 5 km
Cloud details: 122 m
2023/12/10 09:30 LBPD 100930Z AUTO VRB01KT 5000 BR OVC004/// 00/00 Q1018 NOSIG
LBSF - Sofia (observato, Bulgaria
Distance from station: 229km
: 10/12/2023 11:30
Few Clouds
Few Clouds
   varies
: varies 4 km/h
: 2°C
: -1°C
: 81%
: 1016 hPa
Clouds: Few Clouds
Visibility: 10 km
Cloud details: Few Clouds 335 m
2023/12/10 09:30 LBSF 100930Z VRB02KT 9999 FEW011 02/M01 Q1016 NOSIG
 
LGAL - Alexandroupolis, Greece
Distance from station: 242km
: 10/12/2023 11:50
Few Clouds
Few Clouds

: 11 km/h
: 9°C
Wind Chill: 7°C
: 4°C
: 71%
: 1017 hPa
Clouds: Few Clouds
Visibility: 10 km
Cloud details: Few Clouds 914 m
2023/12/10 09:50 LGAL 100950Z 10006KT 9999 FEW030 09/04 Q1017
LGPZ - Preveza/Aktion, Greece
Distance from station: 274km
: 10/12/2023 11:50
Mostly Cloudy
Mostly Cloudy

: 13 km/h
: 11°C
: 6°C
: 72%
: 1017 hPa
Clouds: Mostly Cloudy
Visibility: 10 km
Cloud details: Few Clouds 914 m
Mostly Cloudy 2438 m
2023/12/10 09:50 LGPZ 100950Z 06007KT 9999 FEW030 BKN080 11/06 Q1017
 
BKPR - Prishtina, Yugoslavia
Distance from station: 280km
: 10/12/2023 12:00


: 7 km/h
: 1°C
Wind Chill: -2°C
: 0°C
: 93%
: 1015 hPa
Clouds:
Visibility: 10 km
Cloud details: 1981 m
2023/12/10 10:00 BKPR 101000Z 15004KT 9999 OVC065 01/M00 Q1015 NOSIG
LGEL - Elefsis (hel-Afb, Greece
Distance from station: 284km
: 10/12/2023 11:50
Few Clouds
Few Clouds
   calm
:
: 14°C
: 5°C
: 55%
: 1017 hPa
Clouds: Few Clouds
Visibility: 10 km
Cloud details: Few Clouds 610 m
2023/12/10 09:50 LGEL 100950Z 00000KT 9999 FEW020 14/05 Q1017
 
LATI - Tirana, Albania
Distance from station: 291km
: 10/12/2023 11:50
 ,
,
   varies
: varies 6 km/h
: 9°C
: 5°C
: 76%
: 1015 hPa
: Light Rain
Clouds:
Visibility: 10 km
Cloud details: Partly Cloudy 1219 m
Mostly Cloudy 1494 m
2438 m
2023/12/10 09:50 LATI 100950Z VRB03KT 9999 -RA SCT040 BKN049 OVC080 09/05 Q1015 NOSIG
LGKR - Ioannis Kapodist, Greece
Distance from station: 292km
: 10/12/2023 11:50
Mostly Cloudy
Mostly Cloudy

: 11 km/h
: 12°C
: 8°C
: 77%
: 1016 hPa
Clouds: Mostly Cloudy
Visibility: 10 km
Cloud details: Partly Cloudy 610 m
Mostly Cloudy 2438 m
2023/12/10 09:50 LGKR 100950Z 15006KT 9999 SCT020 BKN080 12/08 Q1016 NOSIG